Time;durP1;ratioP1;P1;durP2;ratioP2;P2;SDS_P1;SDS_P2;PMS_P1;PMS_P2;Temp;Humidity;BMP_temperature;BMP_pressure;BME280_temperature;BME280_humidity;BME280_pressure;Samples;Min_cycle;Max_cycle;Signal;HPM_P1;HPM_P2
2023/11/21 00:00:11;;;;;;;12.80;9.60;;;9.50;99.90;;;;;;5040092;28;20976;-61
2023/11/21 00:02:40;;;;;;;13.90;9.80;;;9.50;99.90;;;;;;5038446;28;20482;-61
2023/11/21 00:05:12;;;;;;;13.40;9.77;;;9.40;99.90;;;;;;5037112;28;20482;-61
2023/11/21 00:07:40;;;;;;;12.20;10.20;;;9.40;99.90;;;;;;5034289;28;20927;-60
2023/11/21 00:10:10;;;;;;;11.60;9.30;;;9.30;99.90;;;;;;5039681;28;20570;-61
2023/11/21 00:12:41;;;;;;;11.60;9.97;;;9.30;99.90;;;;;;5035483;28;21038;-61
2023/11/21 00:15:11;;;;;;;14.90;11.10;;;9.30;99.90;;;;;;5037456;28;21162;-60
2023/11/21 00:17:39;;;;;;;14.20;10.10;;;9.30;99.90;;;;;;5039495;28;20554;-61
2023/11/21 00:20:12;;;;;;;13.93;10.37;;;9.20;99.90;;;;;;5038684;28;20483;-61
2023/11/21 00:22:41;;;;;;;14.13;10.50;;;9.20;99.90;;;;;;5038300;28;20482;-61
2023/11/21 00:25:10;;;;;;;15.57;11.40;;;9.20;99.90;;;;;;5032764;28;20532;-61
2023/11/21 00:27:38;;;;;;;14.07;11.77;;;9.10;99.90;;;;;;5032402;28;20581;-60
2023/11/21 00:30:08;;;;;;;16.80;12.20;;;9.10;99.90;;;;;;5035111;28;21276;-60
2023/11/21 00:32:37;;;;;;;17.20;13.60;;;9.10;99.90;;;;;;5038845;28;20493;-61
2023/11/21 00:50:16;;;;;;;12.13;8.97;;;8.90;99.90;;;;;;5034037;28;20991;-65
2023/11/21 00:52:44;;;;;;;11.50;9.30;;;8.90;99.90;;;;;;5036066;28;20522;-61
2023/11/21 00:55:12;;;;;;;11.37;9.17;;;8.90;99.90;;;;;;5035736;28;20556;-61
2023/11/21 00:57:40;;;;;;;11.93;9.30;;;8.90;99.90;;;;;;5034051;28;20916;-61
2023/11/21 01:00:13;;;;;;;11.73;9.30;;;8.90;99.90;;;;;;5033557;28;20520;-61
2023/11/21 01:02:43;;;;;;;14.90;9.33;;;8.80;99.90;;;;;;5034807;28;20521;-61
2023/11/21 01:05:11;;;;;;;13.33;9.70;;;8.80;99.90;;;;;;5036380;28;20481;-61
2023/11/21 01:07:40;;;;;;;13.20;10.27;;;8.80;99.90;;;;;;5036627;28;20917;-61
2023/11/21 01:10:09;;;;;;;15.17;10.00;;;8.70;99.90;;;;;;5037646;28;20552;-60
2023/11/21 01:12:38;;;;;;;13.40;9.87;;;8.70;99.90;;;;;;5039164;28;20486;-60
2023/11/21 01:15:08;;;;;;;13.13;9.50;;;8.70;99.90;;;;;;5036685;28;20490;-61
2023/11/21 01:17:36;;;;;;;12.23;9.27;;;8.60;99.90;;;;;;5036840;28;20473;-60
2023/11/21 01:20:10;;;;;;;12.57;10.37;;;8.60;99.90;;;;;;5033572;28;20471;-61
2023/11/21 01:22:41;;;;;;;14.07;9.27;;;8.60;99.90;;;;;;5038493;28;20501;-61
2023/11/21 01:25:10;;;;;;;13.87;10.73;;;8.50;99.90;;;;;;5034639;28;20499;-61
2023/11/21 01:27:38;;;;;;;13.07;10.50;;;8.50;99.90;;;;;;5036720;28;20978;-61
2023/11/21 01:30:09;;;;;;;14.60;10.90;;;8.50;99.90;;;;;;5037520;28;21477;-61
2023/11/21 01:32:37;;;;;;;13.37;10.40;;;8.40;99.90;;;;;;5037426;28;20608;-61
2023/11/21 01:35:06;;;;;;;12.80;10.37;;;8.40;99.90;;;;;;5036534;28;20641;-61
2023/11/21 01:37:34;;;;;;;13.10;10.27;;;8.40;99.90;;;;;;5036104;28;20475;-61
2023/11/21 01:40:07;;;;;;;14.40;10.20;;;8.40;99.90;;;;;;5034933;28;20467;-60
2023/11/21 01:42:35;;;;;;;14.43;10.93;;;8.40;99.90;;;;;;5035736;28;20489;-61
2023/11/21 01:45:05;;;;;;;12.93;9.97;;;8.40;99.90;;;;;;5033406;28;20484;-61
2023/11/21 01:47:34;;;;;;;11.27;9.97;;;8.30;99.90;;;;;;5038077;28;20514;-62
2023/11/21 01:50:04;;;;;;;12.87;10.27;;;8.30;99.90;;;;;;5035472;28;20462;-61
2023/11/21 02:07:23;;;;;;;10.30;7.30;;;8.10;99.90;;;;;;5033512;28;20494;-61
2023/11/21 02:09:51;;;;;;;8.80;7.90;;;8.10;99.90;;;;;;5032997;28;20508;-61
2023/11/21 02:12:18;;;;;;;8.47;7.50;;;8.10;99.90;;;;;;5029790;28;20475;-60
2023/11/21 02:14:46;;;;;;;8.90;7.63;;;8.00;99.90;;;;;;5036110;28;20585;-61
2023/11/21 02:17:14;;;;;;;9.20;7.20;;;8.00;99.90;;;;;;5032832;28;20477;-60
2023/11/21 02:19:42;;;;;;;8.73;6.60;;;8.00;99.90;;;;;;5035371;28;20958;-61
2023/11/21 02:22:11;;;;;;;7.83;6.90;;;8.00;99.90;;;;;;5034212;28;20504;-61
2023/11/21 02:24:43;;;;;;;7.33;6.40;;;8.00;99.90;;;;;;5031756;28;21031;-61
2023/11/21 02:27:13;;;;;;;8.17;6.73;;;8.00;99.90;;;;;;5036917;28;20498;-61
2023/11/21 02:29:41;;;;;;;8.07;7.13;;;8.00;99.90;;;;;;5031378;28;20485;-61
2023/11/21 02:32:10;;;;;;;7.60;6.80;;;8.00;99.90;;;;;;5035742;28;20561;-61
2023/11/21 02:34:39;;;;;;;7.57;6.40;;;8.00;99.90;;;;;;5034098;28;20501;-61
2023/11/21 02:41:00;;;;;;;9.07;7.27;;;7.90;99.90;;;;;;5033023;28;20450;-61
2023/11/21 02:43:28;;;;;;;5.97;5.47;;;7.80;99.90;;;;;;5043846;28;20494;-61
2023/11/21 02:45:56;;;;;;;7.77;6.63;;;7.80;99.90;;;;;;5039268;28;20474;-60
2023/11/21 02:48:25;;;;;;;6.90;6.20;;;7.80;99.90;;;;;;5042091;28;20499;-61
2023/11/21 02:50:53;;;;;;;7.47;6.20;;;7.80;99.90;;;;;;5037634;28;20467;-61
2023/11/21 02:53:21;;;;;;;8.90;6.77;;;7.80;99.90;;;;;;5038420;28;20938;-61
2023/11/21 02:55:49;;;;;;;6.80;6.00;;;7.80;99.90;;;;;;5037221;28;21046;-61
2023/11/21 02:58:18;;;;;;;7.73;6.17;;;7.80;99.90;;;;;;5038124;28;20474;-61
2023/11/21 03:00:46;;;;;;;9.90;6.63;;;7.80;99.90;;;;;;5037793;28;20466;-61
2023/11/21 03:03:15;;;;;;;7.87;6.80;;;7.80;99.90;;;;;;5038500;28;20577;-61
2023/11/21 03:05:43;;;;;;;7.17;5.90;;;7.70;99.90;;;;;;5039672;28;20561;-61
2023/11/21 03:08:11;;;;;;;6.70;6.10;;;7.70;99.90;;;;;;5039510;28;20509;-61
2023/11/21 03:10:38;;;;;;;14.13;6.90;;;7.70;99.90;;;;;;5041109;28;20592;-60
2023/11/21 03:13:06;;;;;;;7.60;6.57;;;7.70;99.90;;;;;;5038928;28;20495;-61
2023/11/21 03:15:36;;;;;;;7.83;7.03;;;7.70;99.90;;;;;;5036433;28;20573;-61
2023/11/21 03:18:05;;;;;;;7.40;6.60;;;7.60;99.90;;;;;;5037602;28;20458;-61
2023/11/21 03:20:34;;;;;;;8.73;7.30;;;7.60;99.90;;;;;;5040254;28;20568;-61
2023/11/21 03:23:03;;;;;;;9.40;7.27;;;7.60;99.90;;;;;;5038662;28;20502;-61
2023/11/21 03:25:31;;;;;;;7.70;6.63;;;7.60;99.90;;;;;;5037702;28;21008;-61
2023/11/21 03:27:59;;;;;;;8.03;7.03;;;7.60;99.90;;;;;;5038520;28;21107;-61
2023/11/21 03:30:27;;;;;;;7.50;6.70;;;7.50;99.90;;;;;;5036604;28;21054;-61
2023/11/21 03:32:56;;;;;;;8.00;6.83;;;7.50;99.90;;;;;;5038774;28;20493;-61
2023/11/21 03:35:24;;;;;;;8.10;7.17;;;7.50;99.90;;;;;;5037853;28;20915;-61
2023/11/21 03:37:52;;;;;;;8.67;7.50;;;7.50;99.90;;;;;;5036847;28;20499;-61
2023/11/21 03:40:21;;;;;;;7.80;6.60;;;7.50;99.90;;;;;;5038221;28;20475;-61
2023/11/21 03:42:49;;;;;;;8.40;7.50;;;7.50;99.90;;;;;;5036562;28;20487;-61
2023/11/21 03:45:17;;;;;;;9.00;7.20;;;7.40;99.90;;;;;;5037437;28;20482;-61
2023/11/21 03:47:45;;;;;;;9.03;7.67;;;7.40;99.90;;;;;;5035634;28;20509;-61
2023/11/21 03:50:14;;;;;;;8.37;7.53;;;7.40;99.90;;;;;;5035710;28;20550;-61
2023/11/21 03:52:42;;;;;;;9.40;7.43;;;7.40;99.90;;;;;;5037559;28;20501;-61
2023/11/21 03:55:11;;;;;;;8.90;7.40;;;7.40;99.90;;;;;;5040092;28;20509;-61
2023/11/21 03:57:39;;;;;;;10.30;7.73;;;7.40;99.90;;;;;;5039239;28;20497;-61
2023/11/21 04:00:10;;;;;;;10.63;7.70;;;7.40;99.90;;;;;;5038222;28;20475;-61
2023/11/21 04:02:38;;;;;;;7.67;6.87;;;7.40;99.90;;;;;;5036584;28;20520;-61
2023/11/21 04:05:06;;;;;;;8.43;7.53;;;7.40;99.90;;;;;;5038734;28;20478;-61
2023/11/21 04:07:37;;;;;;;7.73;6.93;;;7.40;99.90;;;;;;5040621;28;20478;-60
2023/11/21 04:10:08;;;;;;;8.90;7.97;;;7.40;99.90;;;;;;5038629;28;20497;-62
2023/11/21 04:12:36;;;;;;;8.70;7.80;;;7.40;99.90;;;;;;5040961;28;20490;-61
2023/11/21 04:15:05;;;;;;;9.23;8.00;;;7.40;99.90;;;;;;5037626;28;20475;-61
2023/11/21 04:17:33;;;;;;;8.10;7.23;;;7.30;99.90;;;;;;5033025;28;20477;-60
2023/11/21 04:20:01;;;;;;;9.57;8.13;;;7.30;99.90;;;;;;5037753;28;20520;-61
2023/11/21 04:22:29;;;;;;;9.57;7.93;;;7.40;99.90;;;;;;5040720;28;20550;-61
2023/11/21 04:24:58;;;;;;;8.80;7.77;;;7.40;99.90;;;;;;5037139;28;20479;-60
2023/11/21 04:27:26;;;;;;;9.50;7.87;;;7.40;99.90;;;;;;5042884;28;20507;-61
2023/11/21 04:29:54;;;;;;;8.83;7.93;;;7.40;99.90;;;;;;5038234;28;20654;-61
2023/11/21 04:32:22;;;;;;;9.67;8.10;;;7.30;99.90;;;;;;5033883;28;20990;-61
2023/11/21 04:34:50;;;;;;;8.80;7.87;;;7.30;99.90;;;;;;5036946;28;20475;-60
2023/11/21 04:37:18;;;;;;;8.40;7.53;;;7.30;99.90;;;;;;5033980;28;20471;-61
2023/11/21 04:39:46;;;;;;;9.30;7.90;;;7.30;99.90;;;;;;5035919;28;20549;-61
2023/11/21 04:42:15;;;;;;;9.40;7.93;;;7.30;99.90;;;;;;5037432;28;20590;-61
2023/11/21 04:44:44;;;;;;;8.80;7.60;;;7.30;99.90;;;;;;5035061;28;20569;-61
2023/11/21 04:47:12;;;;;;;8.57;7.50;;;7.30;99.90;;;;;;5038149;28;20471;-61
2023/11/21 04:49:43;;;;;;;8.57;7.70;;;7.30;99.90;;;;;;5032900;28;20605;-61
2023/11/21 04:52:11;;;;;;;8.83;7.40;;;7.30;99.90;;;;;;5037065;28;20462;-61
2023/11/21 04:54:40;;;;;;;11.37;8.70;;;7.30;99.90;;;;;;5037488;28;20830;-61
2023/11/21 04:57:08;;;;;;;8.70;7.80;;;7.30;99.90;;;;;;5036917;28;20554;-61
2023/11/21 04:59:37;;;;;;;9.37;8.37;;;7.30;99.90;;;;;;5038473;28;20830;-61
2023/11/21 05:02:06;;;;;;;9.07;8.10;;;7.30;99.90;;;;;;5036835;28;21002;-61
2023/11/21 05:04:34;;;;;;;10.63;8.30;;;7.30;99.90;;;;;;5035819;28;20482;-61
2023/11/21 05:07:03;;;;;;;8.80;7.90;;;7.30;99.90;;;;;;5038058;28;20520;-61
2023/11/21 05:09:32;;;;;;;9.60;7.57;;;7.30;99.90;;;;;;5037886;28;20514;-61
2023/11/21 05:12:00;;;;;;;9.33;8.27;;;7.30;99.90;;;;;;5038120;28;20865;-61
2023/11/21 05:14:28;;;;;;;9.63;8.63;;;7.30;99.90;;;;;;5035966;28;20478;-61
2023/11/21 05:16:59;;;;;;;9.17;8.20;;;7.30;99.90;;;;;;5035943;28;20498;-61
2023/11/21 05:19:27;;;;;;;10.40;8.40;;;7.30;99.90;;;;;;5028306;28;20493;-60
2023/11/21 05:21:55;;;;;;;8.60;7.70;;;7.30;99.90;;;;;;5046184;28;20473;-61
2023/11/21 05:24:23;;;;;;;8.47;7.67;;;7.30;99.90;;;;;;5045798;28;21060;-61
2023/11/21 05:26:51;;;;;;;8.90;7.63;;;7.20;99.90;;;;;;5042343;28;20548;-62
2023/11/21 05:29:19;;;;;;;8.43;7.53;;;7.20;99.90;;;;;;5040324;28;20915;-61
2023/11/21 05:31:47;;;;;;;9.70;8.27;;;7.20;99.90;;;;;;5035277;28;20961;-61
2023/11/21 05:34:16;;;;;;;8.97;7.83;;;7.20;99.90;;;;;;5027996;28;20488;-61
2023/11/21 05:36:46;;;;;;;10.47;7.47;;;7.20;99.90;;;;;;5035863;28;20604;-61
2023/11/21 05:39:17;;;;;;;9.33;8.43;;;7.20;99.90;;;;;;5036482;28;20909;-61
2023/11/21 05:41:45;;;;;;;9.03;7.60;;;7.20;99.90;;;;;;5030685;28;20550;-61
2023/11/21 05:44:16;;;;;;;8.03;7.23;;;7.20;99.90;;;;;;5033183;28;20488;-61
2023/11/21 05:46:44;;;;;;;8.90;7.53;;;7.20;99.90;;;;;;5026322;28;20570;-61
2023/11/21 05:49:12;;;;;;;8.40;7.60;;;7.20;99.90;;;;;;5028847;28;20502;-61
2023/11/21 05:51:42;;;;;;;10.03;8.30;;;7.20;99.90;;;;;;5030081;28;20994;-61
2023/11/21 05:54:10;;;;;;;9.53;8.30;;;7.20;99.90;;;;;;5029925;28;21340;-61
2023/11/21 05:56:37;;;;;;;9.70;8.80;;;7.20;99.90;;;;;;5029254;28;20480;-61
2023/11/21 05:59:06;;;;;;;8.30;7.50;;;7.20;99.90;;;;;;5032768;28;20500;-61
2023/11/21 06:01:34;;;;;;;8.07;7.13;;;7.20;99.90;;;;;;5035737;28;20471;-61
2023/11/21 06:04:03;;;;;;;9.60;8.60;;;7.20;99.90;;;;;;5030041;28;20600;-60
2023/11/21 06:06:31;;;;;;;10.63;8.13;;;7.20;99.90;;;;;;5033248;28;20480;-61
2023/11/21 06:09:00;;;;;;;9.00;8.10;;;7.20;99.90;;;;;;5032723;28;20526;-61
2023/11/21 06:11:29;;;;;;;10.10;7.90;;;7.20;99.90;;;;;;5027475;28;20467;-61
2023/11/21 06:13:57;;;;;;;8.47;7.57;;;7.20;99.90;;;;;;5027995;28;20575;-61
2023/11/21 06:16:25;;;;;;;7.87;7.10;;;7.10;99.90;;;;;;5025269;28;20478;-60
2023/11/21 06:18:53;;;;;;;9.00;7.87;;;7.20;99.90;;;;;;5029690;28;20462;-60
2023/11/21 06:21:21;;;;;;;9.20;8.07;;;7.20;99.90;;;;;;5031423;28;20470;-61
2023/11/21 06:23:49;;;;;;;8.63;7.70;;;7.20;99.90;;;;;;5025833;28;20605;-61
2023/11/21 06:26:22;;;;;;;9.90;7.90;;;7.20;99.90;;;;;;5026375;28;20482;-61
2023/11/21 06:28:51;;;;;;;9.40;8.50;;;7.20;99.90;;;;;;5035326;28;21259;-61
2023/11/21 06:31:19;;;;;;;8.83;7.93;;;7.20;99.90;;;;;;5033155;28;20470;-60
2023/11/21 06:33:47;;;;;;;8.63;7.73;;;7.20;99.90;;;;;;5033626;28;20495;-60
2023/11/21 06:36:15;;;;;;;10.97;8.90;;;7.20;99.90;;;;;;5036085;28;20516;-61
2023/11/21 06:38:43;;;;;;;8.83;7.70;;;7.20;99.90;;;;;;5035421;28;20462;-60
2023/11/21 06:41:15;;;;;;;9.03;8.10;;;7.20;99.90;;;;;;5040563;28;20563;-61
2023/11/21 06:43:46;;;;;;;9.23;8.23;;;7.20;99.90;;;;;;5034944;28;21054;-61
2023/11/21 06:46:15;;;;;;;9.73;8.70;;;7.20;99.90;;;;;;5033958;28;20471;-61
2023/11/21 06:48:44;;;;;;;9.33;8.30;;;7.10;99.90;;;;;;5035605;28;20466;-61
2023/11/21 06:51:13;;;;;;;11.90;9.23;;;7.10;99.90;;;;;;5038040;28;20469;-60
2023/11/21 06:53:41;;;;;;;9.73;7.57;;;7.10;99.90;;;;;;5036823;28;20533;-60
2023/11/21 06:56:16;;;;;;;8.57;7.67;;;7.10;99.90;;;;;;5024962;28;20466;-61
2023/11/21 06:58:46;;;;;;;8.77;7.97;;;7.10;99.90;;;;;;5028445;28;20482;-61
2023/11/21 07:01:15;;;;;;;10.00;8.90;;;7.10;99.90;;;;;;5036478;28;20467;-60
2023/11/21 07:03:43;;;;;;;9.50;8.30;;;7.10;99.90;;;;;;5031110;28;20502;-60
2023/11/21 07:06:11;;;;;;;9.70;7.70;;;7.10;99.90;;;;;;5038011;28;20472;-61
2023/11/21 07:08:39;;;;;;;8.70;7.73;;;7.10;99.90;;;;;;5035021;28;21120;-61
2023/11/21 07:11:07;;;;;;;12.00;8.37;;;7.10;99.90;;;;;;5036883;28;20570;-59
2023/11/21 07:13:35;;;;;;;11.20;9.30;;;7.10;99.90;;;;;;5036542;28;20574;-60
2023/11/21 07:16:05;;;;;;;9.03;7.90;;;7.10;99.90;;;;;;5034849;28;20474;-60
2023/11/21 07:18:33;;;;;;;9.43;8.03;;;7.10;99.90;;;;;;5035401;28;20474;-61
2023/11/21 07:21:01;;;;;;;9.67;8.67;;;7.20;99.90;;;;;;5035116;28;20545;-60
2023/11/21 07:23:30;;;;;;;9.60;8.47;;;7.20;99.90;;;;;;5031938;28;20494;-60
2023/11/21 07:25:58;;;;;;;9.87;8.90;;;7.20;99.90;;;;;;5032507;28;20502;-60
2023/11/21 07:28:26;;;;;;;9.60;8.43;;;7.10;99.90;;;;;;5036762;28;20467;-60
2023/11/21 07:30:54;;;;;;;9.37;8.33;;;7.10;99.90;;;;;;5035254;28;20491;-59
2023/11/21 07:33:23;;;;;;;8.70;7.80;;;7.20;99.90;;;;;;5028405;28;20496;-60
2023/11/21 07:35:51;;;;;;;10.60;8.20;;;7.20;99.90;;;;;;5028776;28;20558;-60
2023/11/21 07:38:19;;;;;;;10.27;9.27;;;7.20;99.90;;;;;;5031837;28;20463;-60
2023/11/21 07:40:47;;;;;;;10.03;8.20;;;7.10;99.90;;;;;;5033458;28;20842;-60
2023/11/21 07:43:15;;;;;;;9.77;8.07;;;7.20;99.90;;;;;;5037183;28;20512;-61
2023/11/21 07:45:43;;;;;;;8.40;7.60;;;7.20;99.90;;;;;;5036093;28;20527;-60
2023/11/21 07:48:14;;;;;;;9.10;8.07;;;7.20;99.90;;;;;;5033685;28;20470;-61
2023/11/21 07:50:43;;;;;;;8.93;8.03;;;7.20;99.90;;;;;;5037132;28;20498;-61
2023/11/21 07:53:11;;;;;;;7.50;6.73;;;7.20;99.90;;;;;;5038539;28;20547;-60
2023/11/21 07:55:39;;;;;;;9.10;8.20;;;7.20;99.90;;;;;;5038693;28;20985;-59
2023/11/21 07:58:07;;;;;;;9.10;7.60;;;7.20;99.90;;;;;;5041787;28;20470;-61
2023/11/21 08:00:35;;;;;;;7.97;7.17;;;7.20;99.90;;;;;;5045270;28;20494;-61
2023/11/21 08:03:03;;;;;;;7.50;6.70;;;7.20;99.90;;;;;;5045293;28;20486;-61
2023/11/21 08:05:31;;;;;;;10.33;7.50;;;7.20;99.90;;;;;;5035883;28;20482;-61
2023/11/21 08:08:06;;;;;;;7.30;6.37;;;7.20;99.90;;;;;;5037504;28;20470;-61
2023/11/21 08:10:35;;;;;;;7.50;6.70;;;7.20;99.90;;;;;;5036532;28;20514;-61
2023/11/21 08:13:03;;;;;;;8.00;6.77;;;7.20;99.90;;;;;;5038775;28;20959;-60
2023/11/21 08:15:32;;;;;;;7.83;6.83;;;7.20;99.90;;;;;;5036554;28;20562;-61
2023/11/21 08:18:00;;;;;;;7.20;6.50;;;7.20;99.90;;;;;;5038715;28;20562;-60
2023/11/21 08:20:29;;;;;;;6.93;6.20;;;7.20;99.90;;;;;;5033717;28;20470;-60
2023/11/21 08:22:57;;;;;;;7.17;6.50;;;7.20;99.90;;;;;;5038030;28;21086;-60
2023/11/21 08:25:27;;;;;;;7.20;6.20;;;7.20;99.90;;;;;;5037251;28;20479;-61
2023/11/21 08:27:54;;;;;;;6.43;5.83;;;7.20;99.90;;;;;;5037008;28;20463;-61
2023/11/21 08:30:23;;;;;;;7.90;6.30;;;7.30;99.90;;;;;;5036797;28;20482;-60
2023/11/21 08:32:53;;;;;;;7.40;6.60;;;7.30;99.90;;;;;;5035267;28;20513;-60
2023/11/21 08:35:21;;;;;;;6.20;5.57;;;7.30;99.90;;;;;;5033649;28;21066;-60
2023/11/21 08:37:52;;;;;;;6.20;5.60;;;7.30;99.90;;;;;;5037340;28;21002;-60
2023/11/21 08:40:21;;;;;;;6.53;5.93;;;7.30;99.90;;;;;;5037458;28;20561;-61
2023/11/21 08:42:51;;;;;;;6.73;5.33;;;7.40;99.90;;;;;;5035597;28;20602;-61
2023/11/21 08:45:20;;;;;;;8.47;5.80;;;7.40;99.90;;;;;;5032180;28;20472;-61
2023/11/21 08:47:48;;;;;;;5.50;5.00;;;7.40;99.90;;;;;;5038355;28;20474;-60
2023/11/21 08:50:17;;;;;;;6.23;5.57;;;7.40;99.90;;;;;;5036768;28;20533;-60
2023/11/21 08:52:46;;;;;;;6.53;5.63;;;7.40;99.90;;;;;;5034299;28;20518;-61
2023/11/21 08:55:15;;;;;;;6.37;5.77;;;7.40;99.90;;;;;;5032083;28;20504;-60
2023/11/21 08:57:45;;;;;;;8.53;5.33;;;7.40;99.90;;;;;;5036149;28;20935;-61
2023/11/21 09:00:16;;;;;;;7.13;5.93;;;7.30;99.90;;;;;;5037451;28;20497;-60
2023/11/21 09:02:45;;;;;;;6.17;5.57;;;7.30;99.90;;;;;;5037401;28;20494;-61
2023/11/21 09:05:15;;;;;;;7.00;6.00;;;7.40;99.90;;;;;;5038421;28;20478;-61
2023/11/21 09:07:45;;;;;;;6.90;6.30;;;7.40;99.90;;;;;;5033026;28;20477;-61
2023/11/21 09:10:14;;;;;;;7.77;6.93;;;7.40;99.90;;;;;;5036436;28;21130;-61
2023/11/21 09:12:43;;;;;;;7.97;6.73;;;7.40;99.90;;;;;;5036515;28;20999;-61
2023/11/21 09:15:11;;;;;;;7.90;7.10;;;7.40;99.90;;;;;;5032915;28;20486;-61
2023/11/21 09:17:41;;;;;;;7.00;6.40;;;7.40;99.90;;;;;;5034228;28;20470;-61
2023/11/21 09:20:10;;;;;;;7.73;6.57;;;7.40;99.90;;;;;;5036895;28;20569;-60
2023/11/21 09:22:39;;;;;;;7.13;6.20;;;7.40;99.90;;;;;;5037002;28;20490;-61
2023/11/21 09:25:08;;;;;;;7.90;7.07;;;7.40;99.90;;;;;;5033059;28;20592;-61
2023/11/21 09:27:36;;;;;;;7.00;6.30;;;7.50;99.90;;;;;;5036341;28;20482;-60
2023/11/21 09:30:09;;;;;;;5.70;5.10;;;7.50;99.90;;;;;;5035845;28;20532;-59
2023/11/21 09:32:38;;;;;;;7.33;5.83;;;7.50;99.90;;;;;;5034475;28;20495;-59
2023/11/21 09:35:08;;;;;;;6.20;5.60;;;7.50;99.90;;;;;;5033773;28;20486;-61
2023/11/21 09:37:37;;;;;;;7.00;5.33;;;7.50;99.90;;;;;;5033629;28;20478;-60
2023/11/21 09:40:12;;;;;;;5.83;5.13;;;7.50;99.90;;;;;;5036381;28;20471;-60
2023/11/21 09:42:45;;;;;;;5.97;5.37;;;7.50;99.90;;;;;;5033471;28;20489;-61
2023/11/21 09:45:19;;;;;;;5.50;5.00;;;7.50;99.90;;;;;;5033160;28;20483;-60
2023/11/21 09:47:48;;;;;;;4.43;4.13;;;7.50;99.90;;;;;;5037443;28;20469;-61
2023/11/21 09:50:21;;;;;;;4.50;4.10;;;7.50;99.90;;;;;;5036654;28;21072;-60
2023/11/21 09:52:58;;;;;;;4.70;4.30;;;7.50;99.90;;;;;;5028096;28;20687;-59
2023/11/21 09:55:28;;;;;;;4.93;4.43;;;7.50;99.90;;;;;;5032728;28;20486;-60
2023/11/21 09:57:58;;;;;;;4.40;4.00;;;7.60;99.90;;;;;;5032907;28;20493;-60
2023/11/21 10:00:27;;;;;;;4.10;3.70;;;7.60;99.90;;;;;;5037923;28;20479;-61
2023/11/21 10:02:56;;;;;;;4.40;4.00;;;7.60;99.90;;;;;;5032336;28;20573;-60
2023/11/21 10:05:26;;;;;;;4.73;4.33;;;7.60;99.90;;;;;;5035117;28;20495;-61
2023/11/21 10:07:58;;;;;;;4.37;3.93;;;7.60;99.90;;;;;;5034533;28;20474;-60
2023/11/21 10:10:29;;;;;;;4.40;4.00;;;7.60;99.90;;;;;;5034526;28;20493;-60
2023/11/21 10:13:02;;;;;;;4.80;4.10;;;7.70;99.90;;;;;;5035736;28;20504;-61
2023/11/21 10:15:34;;;;;;;4.43;4.03;;;7.70;99.90;;;;;;5033336;28;20485;-62
2023/11/21 10:18:05;;;;;;;5.00;4.50;;;7.70;99.90;;;;;;5036167;28;20998;-60
2023/11/21 10:20:37;;;;;;;4.43;4.03;;;7.70;99.90;;;;;;5035105;28;20471;-58
2023/11/21 10:23:07;;;;;;;4.20;3.90;;;7.70;99.90;;;;;;5031613;28;20960;-58
2023/11/21 10:25:36;;;;;;;4.00;3.70;;;7.80;99.90;;;;;;5030260;28;20483;-59
2023/11/21 10:28:06;;;;;;;3.90;3.60;;;7.80;99.90;;;;;;5035385;28;20473;-59
2023/11/21 10:30:36;;;;;;;5.77;4.80;;;7.80;99.90;;;;;;5034986;28;20474;-59
2023/11/21 10:33:06;;;;;;;4.67;4.17;;;7.90;99.90;;;;;;5035709;28;20506;-59
2023/11/21 10:35:46;;;;;;;5.50;4.57;;;8.00;99.90;;;;;;5034284;28;20489;-58
2023/11/21 10:38:15;;;;;;;5.20;4.77;;;8.00;99.90;;;;;;5026612;28;20471;-59
2023/11/21 10:40:44;;;;;;;4.93;4.40;;;8.00;99.90;;;;;;5032077;28;20470;-59
2023/11/21 10:43:13;;;;;;;4.57;4.13;;;8.00;99.90;;;;;;5030444;28;20969;-60
2023/11/21 10:45:42;;;;;;;5.03;4.63;;;7.90;99.90;;;;;;5029418;28;20554;-59
2023/11/21 10:48:11;;;;;;;4.03;3.63;;;8.00;99.90;;;;;;5036973;28;21009;-59
2023/11/21 10:50:39;;;;;;;5.50;5.00;;;8.00;99.90;;;;;;5035188;28;20517;-59
2023/11/21 10:53:09;;;;;;;6.47;4.47;;;8.00;99.90;;;;;;5032383;28;20573;-60
2023/11/21 10:55:37;;;;;;;3.90;3.60;;;8.00;99.90;;;;;;5028972;28;20482;-60
2023/11/21 10:58:06;;;;;;;4.30;3.90;;;8.00;99.90;;;;;;5034113;28;20475;-60
2023/11/21 11:00:34;;;;;;;4.63;4.23;;;7.90;99.90;;;;;;5036730;28;20506;-58
2023/11/21 11:03:04;;;;;;;3.60;3.30;;;7.90;99.90;;;;;;5034107;28;20570;-59
2023/11/21 11:05:32;;;;;;;3.97;3.57;;;7.80;99.90;;;;;;5036381;28;20479;-59
2023/11/21 11:08:04;;;;;;;4.20;3.80;;;7.80;99.90;;;;;;5033489;28;20502;-59
2023/11/21 11:10:34;;;;;;;4.30;3.90;;;7.80;99.90;;;;;;5038045;28;20477;-59
2023/11/21 11:13:03;;;;;;;3.87;3.57;;;7.70;99.90;;;;;;5040714;28;20556;-59
2023/11/21 11:15:31;;;;;;;4.43;3.90;;;7.70;99.90;;;;;;5031784;28;20515;-59
2023/11/21 11:18:00;;;;;;;4.40;3.87;;;7.70;99.90;;;;;;5030645;28;20838;-59
2023/11/21 11:20:33;;;;;;;5.13;4.73;;;7.70;99.90;;;;;;5034918;28;20470;-59
2023/11/21 11:23:18;;;;;;;4.30;3.90;;;7.70;99.90;;;;;;5031541;28;20483;-60
2023/11/21 11:26:01;;;;;;;4.10;3.80;;;7.70;99.90;;;;;;5039287;28;20580;-60
2023/11/21 11:28:43;;;;;;;4.43;4.03;;;7.70;99.90;;;;;;5038866;28;20485;-59
2023/11/21 11:31:26;;;;;;;4.33;3.93;;;7.70;99.90;;;;;;5039468;28;20470;-59
2023/11/21 11:33:58;;;;;;;4.60;4.20;;;7.80;99.90;;;;;;5041452;28;20484;-59
2023/11/21 11:36:30;;;;;;;4.57;4.00;;;7.80;99.90;;;;;;5039056;28;20519;-59
2023/11/21 11:38:58;;;;;;;4.70;4.30;;;7.70;99.90;;;;;;5037635;28;20467;-59
2023/11/21 11:41:29;;;;;;;4.30;3.63;;;7.70;99.90;;;;;;5039275;28;20900;-59
2023/11/21 11:43:57;;;;;;;3.77;3.47;;;7.70;99.90;;;;;;5038752;28;20483;-60
2023/11/21 11:46:42;;;;;;;4.30;3.60;;;7.70;99.90;;;;;;5038115;28;20474;-59
2023/11/21 11:49:11;;;;;;;5.80;5.20;;;7.70;99.90;;;;;;5036624;28;20497;-59
2023/11/21 11:51:39;;;;;;;13.70;10.37;;;7.80;99.90;;;;;;5039385;28;20474;-59
2023/11/21 11:54:07;;;;;;;4.27;3.83;;;7.80;99.90;;;;;;5036350;28;20573;-62
2023/11/21 11:56:39;;;;;;;4.73;3.83;;;7.80;99.90;;;;;;5024766;28;20462;-60
2023/11/21 11:59:09;;;;;;;4.70;4.30;;;7.80;99.90;;;;;;5018278;28;20490;-59
2023/11/21 12:01:38;;;;;;;4.53;4.00;;;7.80;99.90;;;;;;5033179;28;20475;-60
2023/11/21 12:04:30;;;;;;;4.63;4.03;;;7.80;99.90;;;;;;5033262;28;20501;-60
2023/11/21 12:07:03;;;;;;;4.17;3.87;;;7.80;99.90;;;;;;5038253;28;20471;-60
2023/11/21 12:09:32;;;;;;;4.43;4.00;;;7.80;99.90;;;;;;5036622;28;20559;-60
2023/11/21 12:12:03;;;;;;;5.93;4.53;;;7.80;99.90;;;;;;5032056;28;21043;-59
2023/11/21 12:14:32;;;;;;;4.53;4.10;;;7.70;99.90;;;;;;5025384;27;20517;-59
2023/11/21 12:17:00;;;;;;;3.50;3.20;;;7.70;99.90;;;;;;5032546;28;21517;-60
2023/11/21 12:19:28;;;;;;;4.13;3.40;;;7.60;99.90;;;;;;5032877;28;20463;-60
2023/11/21 12:21:57;;;;;;;3.90;3.37;;;7.60;99.90;;;;;;5028366;28;20479;-60
2023/11/21 12:24:25;;;;;;;3.87;3.50;;;7.60;99.90;;;;;;5031011;28;20571;-59
2023/11/21 12:26:53;;;;;;;4.60;4.03;;;7.50;99.90;;;;;;5037237;28;20554;-60
2023/11/21 12:29:23;;;;;;;4.40;4.00;;;7.50;99.90;;;;;;5035862;28;20463;-60
2023/11/21 12:31:51;;;;;;;4.00;3.70;;;7.50;99.90;;;;;;5035814;28;20621;-62
2023/11/21 12:34:19;;;;;;;3.90;3.60;;;7.50;99.90;;;;;;5036619;28;21006;-60
2023/11/21 12:36:49;;;;;;;4.40;4.03;;;7.50;99.90;;;;;;5034499;28;20478;-59
2023/11/21 12:39:17;;;;;;;4.70;4.10;;;7.50;99.90;;;;;;5035695;28;20471;-60
2023/11/21 12:41:45;;;;;;;4.17;3.83;;;7.40;99.90;;;;;;5037965;28;20557;-60
2023/11/21 12:44:15;;;;;;;4.40;4.00;;;7.40;99.90;;;;;;5035235;28;20483;-60
2023/11/21 12:46:46;;;;;;;4.13;3.73;;;7.40;99.90;;;;;;5033693;28;20466;-60
2023/11/21 12:49:17;;;;;;;4.30;3.90;;;7.40;99.90;;;;;;5034456;28;20788;-60
2023/11/21 12:51:47;;;;;;;3.90;3.57;;;7.30;99.90;;;;;;5040345;28;20477;-60
2023/11/21 12:54:15;;;;;;;3.90;3.60;;;7.30;99.90;;;;;;5030355;28;20491;-62
2023/11/21 12:56:48;;;;;;;3.60;3.30;;;7.30;99.90;;;;;;5034291;28;20998;-60
2023/11/21 12:59:18;;;;;;;4.80;3.70;;;7.40;99.90;;;;;;5034596;28;20478;-59
2023/11/21 13:01:51;;;;;;;4.80;3.90;;;7.40;99.90;;;;;;5039049;28;20554;-60
2023/11/21 13:04:30;;;;;;;4.00;3.67;;;7.40;99.90;;;;;;5036537;28;20517;-60
2023/11/21 13:07:06;;;;;;;3.90;3.60;;;7.30;99.90;;;;;;5039376;28;20552;-60
2023/11/21 13:09:34;;;;;;;3.80;3.47;;;7.30;99.90;;;;;;5037622;28;20945;-60
2023/11/21 13:12:04;;;;;;;3.70;3.40;;;7.30;99.90;;;;;;5039200;28;20890;-60
2023/11/21 13:14:32;;;;;;;6.07;3.80;;;7.30;99.90;;;;;;5036308;28;20569;-60
2023/11/21 13:17:02;;;;;;;3.73;3.43;;;7.30;99.90;;;;;;5039932;28;20474;-60
2023/11/21 13:19:30;;;;;;;4.13;3.83;;;7.20;99.90;;;;;;5037840;28;20474;-60
2023/11/21 13:22:01;;;;;;;3.80;3.50;;;7.30;99.90;;;;;;5035081;28;20469;-60
2023/11/21 13:24:29;;;;;;;3.80;3.50;;;7.20;99.90;;;;;;5037505;28;20484;-60
2023/11/21 13:26:57;;;;;;;5.70;4.40;;;7.30;99.90;;;;;;5038363;28;20542;-60
2023/11/21 13:29:26;;;;;;;3.77;3.47;;;7.30;99.90;;;;;;5038422;28;20471;-60
2023/11/21 13:31:55;;;;;;;30.43;20.87;;;7.20;99.90;;;;;;5037696;28;20893;-60
2023/11/21 13:34:27;;;;;;;6.67;5.70;;;7.20;99.90;;;;;;5036345;28;21021;-60
2023/11/21 13:36:58;;;;;;;4.60;3.60;;;7.20;99.90;;;;;;5038274;28;20529;-61
2023/11/21 13:39:28;;;;;;;4.10;3.70;;;7.10;99.90;;;;;;5039140;28;20482;-60